Time;durP1;ratioP1;P1;durP2;ratioP2;P2;SDS_P1;SDS_P2;PMS_P1;PMS_P2;Temp;Humidity;BMP_temperature;BMP_pressure;BME280_temperature;BME280_humidity;BME280_pressure;Samples;Min_cycle;Max_cycle;Signal;HPM_P1;HPM_P2
2022/09/05 00:02:17;;;;;;;;;;;19.90;68.60;;;;;;5127869;27;19919;-66
2022/09/05 00:04:46;;;;;;;;;;;19.90;68.60;;;;;;5131718;27;20026;-66
2022/09/05 00:07:16;;;;;;;;;;;19.80;68.80;;;;;;5130957;27;19930;-66
2022/09/05 00:09:50;;;;;;;;;;;19.80;68.90;;;;;;5127099;27;19923;-66
2022/09/05 00:12:18;;;;;;;;;;;19.80;68.80;;;;;;5127418;27;19927;-65
2022/09/05 00:14:53;;;;;;;;;;;19.80;68.90;;;;;;5130578;27;20008;-64
2022/09/05 00:17:23;;;;;;;;;;;19.70;68.90;;;;;;5124845;27;19920;-65
2022/09/05 00:19:52;;;;;;;;;;;19.70;69.00;;;;;;5128265;27;20373;-65
2022/09/05 00:22:36;;;;;;;;;;;19.60;69.00;;;;;;5127817;27;19926;-66
2022/09/05 00:25:12;;;;;;;;;;;19.60;69.10;;;;;;5127746;27;19919;-67
2022/09/05 00:27:43;;;;;;;;;;;19.50;69.50;;;;;;5126654;27;20345;-65
2022/09/05 02:05:33;;;;;;;;;;;18.10;73.20;;;;;;5105755;27;20058;-66
2022/09/05 02:08:22;;;;;;;;;;;18.10;72.90;;;;;;5130371;27;19926;-66
2022/09/05 02:10:55;;;;;;;;;;;18.10;73.00;;;;;;5126947;27;20388;-67
2022/09/05 02:13:26;;;;;;;;;;;18.10;72.90;;;;;;5126140;27;19934;-64
2022/09/05 02:15:58;;;;;;;;;;;18.10;73.10;;;;;;5125678;27;20364;-65
2022/09/05 02:18:28;;;;;;;;;;;18.00;73.20;;;;;;5119622;27;19923;-65
2022/09/05 02:20:58;;;;;;;;;;;18.00;73.20;;;;;;5129577;27;19919;-65
2022/09/05 02:23:29;;;;;;;;;;;18.00;73.20;;;;;;5130418;27;19919;-64
2022/09/05 02:25:57;;;;;;;;;;;17.90;73.30;;;;;;5129660;27;20012;-65
2022/09/05 02:28:27;;;;;;;;;;;17.90;73.30;;;;;;5130599;27;20285;-65
2022/09/05 02:30:56;;;;;;;;;;;17.90;73.40;;;;;;5126876;27;19995;-66
2022/09/05 02:33:26;;;;;;;;;;;17.90;73.40;;;;;;5126513;27;19988;-65
2022/09/05 02:36:00;;;;;;;;;;;17.90;73.40;;;;;;5129768;27;19924;-65
2022/09/05 02:38:32;;;;;;;;;;;17.80;73.50;;;;;;5129354;27;19931;-65
2022/09/05 02:41:03;;;;;;;;;;;17.70;73.80;;;;;;5129430;27;19927;-65
2022/09/05 02:43:32;;;;;;;;;;;17.70;73.90;;;;;;5130230;27;19966;-65
2022/09/05 02:46:04;;;;;;;;;;;17.70;74.20;;;;;;5130649;27;19959;-66
2022/09/05 02:48:38;;;;;;;;;;;17.60;74.20;;;;;;5124143;27;19928;-65
2022/09/05 02:51:09;;;;;;;;;;;17.70;74.00;;;;;;5129566;27;19980;-65
2022/09/05 02:53:39;;;;;;;;;;;17.60;74.10;;;;;;5129582;27;19928;-65
2022/09/05 02:56:13;;;;;;;;;;;17.60;74.20;;;;;;5129334;27;20027;-66
2022/09/05 02:58:50;;;;;;;;;;;17.60;74.10;;;;;;5128187;27;19919;-66
2022/09/05 03:01:20;;;;;;;;;;;17.60;74.30;;;;;;5117543;27;19927;-65
2022/09/05 03:03:49;;;;;;;;;;;17.60;74.00;;;;;;5128396;27;19953;-66
2022/09/05 03:06:27;;;;;;;;;;;17.60;74.00;;;;;;5129069;27;19927;-65
2022/09/05 03:09:03;;;;;;;;;;;17.60;73.90;;;;;;5128518;27;19946;-66
2022/09/05 03:11:48;;;;;;;;;;;17.60;73.90;;;;;;5116597;27;19920;-66
2022/09/05 03:14:30;;;;;;;;;;;17.60;73.70;;;;;;5125585;27;19924;-66
2022/09/05 03:17:30;;;;;;;;;;;17.60;73.60;;;;;;5117001;27;19951;-66
2022/09/05 03:20:29;;;;;;;;;;;17.60;73.60;;;;;;5126359;27;19952;-66
2022/09/05 03:23:15;;;;;;;;;;;17.40;73.70;;;;;;5121143;27;20792;-66
2022/09/05 03:26:00;;;;;;;;;;;17.50;73.80;;;;;;5129431;27;20013;-66
2022/09/05 03:28:40;;;;;;;;;;;17.40;73.80;;;;;;5128500;27;19933;-66
2022/09/05 03:31:18;;;;;;;;;;;17.40;73.90;;;;;;5127012;27;19933;-67
2022/09/05 03:33:56;;;;;;;;;;;17.40;74.10;;;;;;5118530;27;20703;-66
2022/09/05 03:36:51;;;;;;;;;;;17.40;74.10;;;;;;5120561;27;19966;-66
2022/09/05 03:39:45;;;;;;;;;;;17.30;74.30;;;;;;5123490;27;20566;-65
2022/09/05 03:42:27;;;;;;;;;;;17.30;74.10;;;;;;5127179;27;20296;-66
2022/09/05 03:45:01;;;;;;;;;;;17.20;74.30;;;;;;5126491;27;19919;-65
2022/09/05 03:47:39;;;;;;;;;;;17.20;74.70;;;;;;5125207;27;20392;-66
2022/09/05 03:50:15;;;;;;;;;;;17.10;74.90;;;;;;5124501;27;19927;-66
2022/09/05 03:52:51;;;;;;;;;;;17.10;75.00;;;;;;5124247;27;20284;-66
2022/09/05 03:55:35;;;;;;;;;;;17.10;75.00;;;;;;5125288;27;19923;-66
2022/09/05 03:58:19;;;;;;;;;;;17.00;75.10;;;;;;5125219;27;19923;-65
2022/09/05 04:01:02;;;;;;;;;;;17.00;74.90;;;;;;5123898;27;19927;-66
2022/09/05 04:03:32;;;;;;;;;;;17.00;74.80;;;;;;5125569;27;19931;-65
2022/09/05 04:06:06;;;;;;;;;;;17.00;74.90;;;;;;5130558;27;20396;-65
2022/09/05 04:08:39;;;;;;;;;;;16.90;75.20;;;;;;5129196;27;20288;-65
2022/09/05 04:11:08;;;;;;;;;;;16.90;75.30;;;;;;5130419;27;19927;-65
2022/09/05 04:13:37;;;;;;;;;;;16.90;75.20;;;;;;5129738;27;20002;-66
2022/09/05 04:16:09;;;;;;;;;;;16.90;75.30;;;;;;5129470;27;19919;-66
2022/09/05 04:18:38;;;;;;;;;;;16.90;75.30;;;;;;5127234;27;20304;-65
2022/09/05 04:21:08;;;;;;;;;;;16.80;75.40;;;;;;5122360;27;19923;-65
2022/09/05 04:23:41;;;;;;;;;;;16.80;75.40;;;;;;5130636;27;19926;-66
2022/09/05 04:26:15;;;;;;;;;;;16.80;75.50;;;;;;5131797;27;20015;-65
2022/09/05 04:28:55;;;;;;;;;;;16.80;75.50;;;;;;5130652;27;19929;-65
2022/09/05 04:31:28;;;;;;;;;;;16.80;75.40;;;;;;5131507;27;19942;-65
2022/09/05 04:34:00;;;;;;;;;;;16.70;75.40;;;;;;5129483;27;20329;-65
2022/09/05 04:36:28;;;;;;;;;;;16.70;75.40;;;;;;5126757;27;19927;-64
2022/09/05 04:39:07;;;;;;;;;;;16.70;75.30;;;;;;5126401;27;19950;-65
2022/09/05 04:41:35;;;;;;;;;;;16.70;75.40;;;;;;5130791;27;19925;-65
2022/09/05 04:44:02;;;;;;;;;;;16.70;75.50;;;;;;5130939;27;19927;-65
2022/09/05 04:46:35;;;;;;;;;;;16.60;75.60;;;;;;5127000;27;20444;-65
2022/09/05 04:49:08;;;;;;;;;;;16.60;75.60;;;;;;5127492;27;19926;-65
2022/09/05 04:51:50;;;;;;;;;;;16.60;75.60;;;;;;5130094;27;19926;-64
2022/09/05 04:54:28;;;;;;;;;;;16.60;75.80;;;;;;5124310;27;20411;-64
2022/09/05 04:56:58;;;;;;;;;;;16.60;75.70;;;;;;5129975;27;19935;-66
2022/09/05 04:59:30;;;;;;;;;;;16.60;75.60;;;;;;5133049;27;19954;-65
2022/09/05 05:02:01;;;;;;;;;;;16.60;75.80;;;;;;5121170;27;19934;-65
2022/09/05 05:04:28;;;;;;;;;;;16.60;75.70;;;;;;5125791;27;20030;-65
2022/09/05 05:07:01;;;;;;;;;;;16.60;75.80;;;;;;5129879;27;19923;-65
2022/09/05 05:09:30;;;;;;;;;;;16.60;75.50;;;;;;5126118;27;19928;-65
2022/09/05 05:11:59;;;;;;;;;;;16.60;75.80;;;;;;5129823;27;20034;-65
2022/09/05 05:14:28;;;;;;;;;;;16.60;75.90;;;;;;5128084;27;19927;-65
2022/09/05 05:16:57;;;;;;;;;;;16.60;75.80;;;;;;5125563;27;19933;-66
2022/09/05 05:19:28;;;;;;;;;;;16.60;75.80;;;;;;5128845;27;19919;-65
2022/09/05 05:21:57;;;;;;;;;;;16.60;76.00;;;;;;5131091;27;19919;-65
2022/09/05 05:24:25;;;;;;;;;;;16.60;76.10;;;;;;5124985;27;20284;-64
2022/09/05 05:26:55;;;;;;;;;;;16.60;76.20;;;;;;5128759;27;20337;-66
2022/09/05 05:29:25;;;;;;;;;;;16.60;76.30;;;;;;5123872;27;19919;-66
2022/09/05 05:31:53;;;;;;;;;;;16.60;76.10;;;;;;5126302;27;19919;-65
2022/09/05 05:34:23;;;;;;;;;;;16.60;76.00;;;;;;5126460;27;20377;-65
2022/09/05 05:36:53;;;;;;;;;;;16.60;76.20;;;;;;5130170;27;19926;-66
2022/09/05 05:39:22;;;;;;;;;;;16.70;76.10;;;;;;5128232;27;20006;-65
2022/09/05 05:41:52;;;;;;;;;;;16.70;76.30;;;;;;5129357;27;19927;-64
2022/09/05 05:44:20;;;;;;;;;;;16.70;76.40;;;;;;5127921;27;19928;-64
2022/09/05 05:46:55;;;;;;;;;;;16.80;76.20;;;;;;5127006;27;19927;-65
2022/09/05 05:49:27;;;;;;;;;;;16.80;76.10;;;;;;5127236;27;19927;-65
2022/09/05 05:52:08;;;;;;;;;;;16.80;76.20;;;;;;5124402;27;20023;-65
2022/09/05 05:54:40;;;;;;;;;;;16.90;76.00;;;;;;5125968;27;19928;-65
2022/09/05 05:57:22;;;;;;;;;;;16.90;76.00;;;;;;5128570;27;20357;-66
2022/09/05 06:00:05;;;;;;;;;;;17.00;76.20;;;;;;5125880;27;20023;-65
2022/09/05 06:02:56;;;;;;;;;;;16.90;76.60;;;;;;5128440;27;19926;-65
2022/09/05 06:05:33;;;;;;;;;;;17.00;76.30;;;;;;5127540;27;20341;-65
2022/09/05 06:08:08;;;;;;;;;;;17.10;76.20;;;;;;5126192;27;19928;-65
2022/09/05 06:10:49;;;;;;;;;;;17.10;76.30;;;;;;5131488;27;19955;-66
2022/09/05 06:13:33;;;;;;;;;;;17.10;76.50;;;;;;5125889;27;19938;-66
2022/09/05 06:16:18;;;;;;;;;;;17.20;76.50;;;;;;5125737;27;20388;-65
2022/09/05 06:19:15;;;;;;;;;;;17.30;76.20;;;;;;5125505;27;20369;-66
2022/09/05 06:22:11;;;;;;;;;;;17.40;76.00;;;;;;5126950;27;19923;-66
2022/09/05 06:24:56;;;;;;;;;;;17.40;75.30;;;;;;5128663;27;19928;-66
2022/09/05 06:27:39;;;;;;;;;;;17.60;75.50;;;;;;5122376;27;19982;-65
2022/09/05 06:30:08;;;;;;;;;;;17.60;75.60;;;;;;5126452;27;19946;-65
2022/09/05 06:32:57;;;;;;;;;;;17.70;74.90;;;;;;5126791;27;19959;-65
2022/09/05 06:35:31;;;;;;;;;;;17.70;75.30;;;;;;5121883;27;20010;-65
2022/09/05 06:38:04;;;;;;;;;;;17.70;75.20;;;;;;5122769;27;20698;-70
2022/09/05 06:40:34;;;;;;;;;;;17.80;75.30;;;;;;5127357;27;19927;-66
2022/09/05 06:43:08;;;;;;;;;;;17.90;74.70;;;;;;5125191;27;19920;-65
2022/09/05 06:46:05;;;;;;;;;;;17.90;75.60;;;;;;5123754;27;19919;-66
2022/09/05 06:48:35;;;;;;;;;;;17.90;75.40;;;;;;5081269;28;19920;-65
2022/09/05 06:51:15;;;;;;;;;;;18.10;75.10;;;;;;5119058;27;20447;-65
2022/09/05 06:54:02;;;;;;;;;;;18.10;75.80;;;;;;5129834;27;20369;-66
2022/09/05 06:56:39;;;;;;;;;;;18.20;75.60;;;;;;5123323;27;19920;-65
2022/09/05 06:59:23;;;;;;;;;;;18.30;75.60;;;;;;5135731;27;19919;-65
2022/09/05 07:01:54;;;;;;;;;;;18.40;76.00;;;;;;5120107;27;19970;-65
2022/09/05 07:04:30;;;;;;;;;;;18.60;75.70;;;;;;5123110;27;19980;-64
2022/09/05 07:07:04;;;;;;;;;;;18.60;76.00;;;;;;5126489;27;19923;-64
2022/09/05 07:09:33;;;;;;;;;;;18.70;75.80;;;;;;5129343;27;19923;-65
2022/09/05 07:12:08;;;;;;;;;;;18.80;76.00;;;;;;5128795;27;19973;-64
2022/09/05 07:14:40;;;;;;;;;;;18.80;75.80;;;;;;5127472;27;20349;-64
2022/09/05 07:17:09;;;;;;;;;;;19.10;75.50;;;;;;5126042;27;20014;-65
2022/09/05 07:19:38;;;;;;;;;;;19.20;75.20;;;;;;5123629;27;19926;-64
2022/09/05 07:22:16;;;;;;;;;;;19.40;75.10;;;;;;5118924;27;20350;-64
2022/09/05 07:24:45;;;;;;;;;;;19.60;74.50;;;;;;5125183;27;19926;-65
2022/09/05 07:27:24;;;;;;;;;;;19.80;73.70;;;;;;5130515;27;19919;-65
2022/09/05 07:29:55;;;;;;;;;;;19.90;73.30;;;;;;5123884;27;20070;-65
2022/09/05 07:32:23;;;;;;;;;;;20.10;73.40;;;;;;5124694;27;19919;-65
2022/09/05 07:34:51;;;;;;;;;;;20.20;72.80;;;;;;5126760;27;19923;-64
2022/09/05 07:37:21;;;;;;;;;;;20.20;72.70;;;;;;5125408;27;19927;-64
2022/09/05 07:39:52;;;;;;;;;;;20.40;72.10;;;;;;5125547;27;19928;-64
2022/09/05 07:42:24;;;;;;;;;;;20.60;72.00;;;;;;5117913;27;19925;-64
2022/09/05 07:44:55;;;;;;;;;;;20.60;71.50;;;;;;5127593;27;19961;-65
2022/09/05 07:47:25;;;;;;;;;;;20.70;71.30;;;;;;5122847;27;19919;-65
2022/09/05 07:49:53;;;;;;;;;;;21.00;70.80;;;;;;5125351;27;19926;-65
2022/09/05 07:52:21;;;;;;;;;;;21.20;70.10;;;;;;5130291;27;19919;-66
2022/09/05 07:54:51;;;;;;;;;;;21.40;69.80;;;;;;5124471;27;19923;-64
2022/09/05 07:57:20;;;;;;;;;;;21.60;69.30;;;;;;5129116;27;19930;-64
2022/09/05 07:59:49;;;;;;;;;;;21.60;69.30;;;;;;5125499;27;19927;-65
2022/09/05 08:02:16;;;;;;;;;;;21.60;68.90;;;;;;5124288;27;19919;-65
2022/09/05 08:04:44;;;;;;;;;;;21.70;68.90;;;;;;5126391;27;19948;-65
2022/09/05 08:07:12;;;;;;;;;;;21.80;68.60;;;;;;5122113;27;19919;-66
2022/09/05 08:09:41;;;;;;;;;;;21.90;68.20;;;;;;5123679;27;19964;-64
2022/09/05 08:12:12;;;;;;;;;;;22.00;67.80;;;;;;5131534;27;19923;-65
2022/09/05 08:14:43;;;;;;;;;;;22.10;67.80;;;;;;5121391;27;19923;-65
2022/09/05 08:17:17;;;;;;;;;;;22.20;67.60;;;;;;5126866;27;20063;-66
2022/09/05 08:19:53;;;;;;;;;;;22.30;67.40;;;;;;5123175;27;20008;-65
2022/09/05 08:22:21;;;;;;;;;;;22.50;66.60;;;;;;5124286;27;19920;-65
2022/09/05 08:24:54;;;;;;;;;;;22.70;66.10;;;;;;5124556;27;19928;-65
2022/09/05 08:27:22;;;;;;;;;;;22.80;65.70;;;;;;5122294;27;19924;-65
2022/09/05 08:29:52;;;;;;;;;;;22.90;65.20;;;;;;5127775;27;19920;-64
2022/09/05 08:32:22;;;;;;;;;;;23.10;64.40;;;;;;5116926;27;19934;-64
2022/09/05 08:34:53;;;;;;;;;;;23.20;63.90;;;;;;5127633;27;20195;-64
2022/09/05 08:37:21;;;;;;;;;;;23.30;63.40;;;;;;5127168;27;19927;-65
2022/09/05 08:39:50;;;;;;;;;;;23.50;63.50;;;;;;5126332;27;19926;-64
2022/09/05 08:42:25;;;;;;;;;;;23.60;63.40;;;;;;5124776;27;20376;-64
2022/09/05 08:45:01;;;;;;;;;;;23.70;62.50;;;;;;5125671;27;19919;-64
2022/09/05 08:47:30;;;;;;;;;;;23.80;61.90;;;;;;5124187;27;20361;-65
2022/09/05 08:50:10;;;;;;;;;;;23.90;61.60;;;;;;5123282;27;20488;-64
2022/09/05 08:52:44;;;;;;;;;;;24.10;61.10;;;;;;5122246;27;19927;-65
2022/09/05 08:55:15;;;;;;;;;;;24.10;60.80;;;;;;5128024;27;19923;-65
2022/09/05 08:57:56;;;;;;;;;;;24.30;60.10;;;;;;5132300;27;19952;-64
2022/09/05 09:00:23;;;;;;;;;;;24.40;59.50;;;;;;5121249;27;19930;-64
2022/09/05 09:02:55;;;;;;;;;;;24.50;59.20;;;;;;5120465;27;19926;-64
2022/09/05 09:05:28;;;;;;;;;;;24.60;58.80;;;;;;5128093;27;19919;-65
2022/09/05 09:07:57;;;;;;;;;;;24.70;58.70;;;;;;5130527;27;19923;-64
2022/09/05 09:10:29;;;;;;;;;;;24.70;58.10;;;;;;5126250;27;20442;-64
2022/09/05 09:13:26;;;;;;;;;;;24.90;57.20;;;;;;5127600;27;19919;-65
2022/09/05 09:15:57;;;;;;;;;;;25.00;57.20;;;;;;5082202;28;20210;-65
2022/09/05 09:18:32;;;;;;;;;;;25.10;56.40;;;;;;5117232;27;19923;-64
2022/09/05 09:21:13;;;;;;;;;;;25.30;56.70;;;;;;5127221;27;20376;-64
2022/09/05 09:23:43;;;;;;;;;;;25.30;56.30;;;;;;5124312;27;19919;-65
2022/09/05 09:26:15;;;;;;;;;;;25.40;55.90;;;;;;5122868;27;20296;-66
2022/09/05 09:28:47;;;;;;;;;;;25.50;55.50;;;;;;5123885;27;19919;-64
2022/09/05 09:31:17;;;;;;;;;;;25.60;55.70;;;;;;5124309;27;19919;-65
2022/09/05 09:33:47;;;;;;;;;;;25.60;55.40;;;;;;5127445;27;19927;-64
2022/09/05 09:36:31;;;;;;;;;;;25.80;54.60;;;;;;5127472;27;19984;-64
2022/09/05 09:39:07;;;;;;;;;;;25.90;54.00;;;;;;5127286;27;19919;-65
2022/09/05 09:41:43;;;;;;;;;;;26.00;53.90;;;;;;5123073;27;20395;-65
2022/09/05 09:44:34;;;;;;;;;;;26.10;53.50;;;;;;5124958;27;20418;-67
2022/09/05 09:47:04;;;;;;;;;;;26.20;53.30;;;;;;5123209;27;20002;-65
2022/09/05 09:49:48;;;;;;;;;;;26.20;52.40;;;;;;5126340;27;19923;-66
2022/09/05 09:52:32;;;;;;;;;;;26.30;52.50;;;;;;5121383;27;19926;-64
2022/09/05 09:55:17;;;;;;;;;;;26.40;52.30;;;;;;5131578;27;20030;-64
2022/09/05 09:57:58;;;;;;;;;;;26.50;52.00;;;;;;5126338;27;19919;-65
2022/09/05 10:00:26;;;;;;;;;;;26.50;51.40;;;;;;5121825;27;19926;-64
2022/09/05 10:03:03;;;;;;;;;;;26.60;50.70;;;;;;5128929;27;19930;-64
2022/09/05 10:05:53;;;;;;;;;;;26.70;49.90;;;;;;5127202;27;19930;-64
2022/09/05 10:08:27;;;;;;;;;;;26.70;49.70;;;;;;5123164;27;19934;-65
2022/09/05 10:11:07;;;;;;;;;;;26.80;48.90;;;;;;5124359;27;19927;-64
2022/09/05 10:13:43;;;;;;;;;;;26.90;47.90;;;;;;5120408;27;19923;-64
2022/09/05 10:16:30;;;;;;;;;;;27.00;48.10;;;;;;5125523;27;19922;-66
2022/09/05 10:19:12;;;;;;;;;;;27.00;46.90;;;;;;5125573;27;19919;-65
2022/09/05 10:21:51;;;;;;;;;;;27.10;46.10;;;;;;5120199;27;19924;-65
2022/09/05 10:24:41;;;;;;;;;;;27.30;45.80;;;;;;5128443;27;19920;-64
2022/09/05 10:27:26;;;;;;;;;;;27.40;45.30;;;;;;5124727;27;19920;-64
2022/09/05 10:30:05;;;;;;;;;;;27.50;45.30;;;;;;5125668;27;19919;-64
2022/09/05 10:32:39;;;;;;;;;;;27.60;45.20;;;;;;5123770;27;20106;-64
2022/09/05 10:35:11;;;;;;;;;;;27.50;45.70;;;;;;5126735;27;19925;-65
2022/09/05 10:37:40;;;;;;;;;;;27.60;45.10;;;;;;5122735;27;19919;-65
2022/09/05 10:40:11;;;;;;;;;;;27.70;45.10;;;;;;5129339;27;19923;-65
2022/09/05 10:42:42;;;;;;;;;;;27.90;44.00;;;;;;5124384;27;19941;-66
2022/09/05 10:45:14;;;;;;;;;;;28.10;43.90;;;;;;5122001;27;20301;-66
2022/09/05 10:47:47;;;;;;;;;;;28.00;43.80;;;;;;5123313;27;20399;-65
2022/09/05 10:50:20;;;;;;;;;;;27.80;44.70;;;;;;5130446;27;19919;-64
2022/09/05 10:53:00;;;;;;;;;;;27.60;45.00;;;;;;5132485;27;19931;-64
2022/09/05 10:55:32;;;;;;;;;;;27.40;45.80;;;;;;5119766;27;19927;-65
2022/09/05 10:58:04;;;;;;;;;;;27.20;45.00;;;;;;5124055;27;19919;-65
2022/09/05 11:00:41;;;;;;;;;;;27.30;43.60;;;;;;5113819;27;19928;-65
2022/09/05 11:03:12;;;;;;;;;;;27.20;44.10;;;;;;5127882;27;19919;-65
2022/09/05 11:05:43;;;;;;;;;;;27.10;44.10;;;;;;5124437;27;19923;-65
2022/09/05 11:08:14;;;;;;;;;;;27.10;43.40;;;;;;5127247;27;19924;-65
2022/09/05 11:10:45;;;;;;;;;;;27.10;43.80;;;;;;5130170;27;19933;-66
2022/09/05 11:13:15;;;;;;;;;;;27.00;44.30;;;;;;5129129;27;19923;-64
2022/09/05 11:15:57;;;;;;;;;;;27.00;44.80;;;;;;5121928;27;20377;-66
2022/09/05 11:18:33;;;;;;;;;;;26.90;44.70;;;;;;5123969;27;19919;-65
2022/09/05 11:21:03;;;;;;;;;;;26.90;44.60;;;;;;5130382;27;19950;-66
2022/09/05 11:23:31;;;;;;;;;;;27.00;43.80;;;;;;5125886;27;19973;-65
2022/09/05 11:26:01;;;;;;;;;;;27.20;44.20;;;;;;5124099;27;19919;-65
2022/09/05 11:28:33;;;;;;;;;;;27.30;44.10;;;;;;5124028;27;19919;-65
2022/09/05 11:31:01;;;;;;;;;;;27.30;44.60;;;;;;5124102;27;19958;-66
2022/09/05 11:33:38;;;;;;;;;;;27.20;44.40;;;;;;5124462;27;19925;-66
2022/09/05 11:36:07;;;;;;;;;;;27.20;44.50;;;;;;5120747;27;19972;-65
2022/09/05 11:38:52;;;;;;;;;;;27.30;43.70;;;;;;5120790;27;19920;-64
2022/09/05 11:41:40;;;;;;;;;;;27.40;43.10;;;;;;5122869;27;19931;-66
2022/09/05 11:44:17;;;;;;;;;;;27.60;42.30;;;;;;5124187;27;19919;-66
2022/09/05 11:46:45;;;;;;;;;;;27.60;42.20;;;;;;5115906;27;19920;-65
2022/09/05 11:49:39;;;;;;;;;;;27.60;41.90;;;;;;5129488;27;20038;-65
2022/09/05 11:52:21;;;;;;;;;;;27.70;43.10;;;;;;5127974;27;19927;-65
2022/09/05 11:55:09;;;;;;;;;;;27.50;43.00;;;;;;5109338;27;19926;-65
2022/09/05 11:57:44;;;;;;;;;;;27.30;44.20;;;;;;5088925;27;19979;-65
2022/09/05 12:00:16;;;;;;;;;;;27.20;43.10;;;;;;5119766;27;19927;-64
2022/09/05 12:02:54;;;;;;;;;;;27.30;43.00;;;;;;5121763;27;19924;-65
2022/09/05 12:05:36;;;;;;;;;;;27.30;42.20;;;;;;5121856;27;19931;-65
2022/09/05 12:08:07;;;;;;;;;;;27.20;42.40;;;;;;5124966;27;20109;-66
2022/09/05 12:10:39;;;;;;;;;;;27.30;42.10;;;;;;5114828;27;19928;-67
2022/09/05 12:13:17;;;;;;;;;;;27.20;43.00;;;;;;5121121;27;19996;-65
2022/09/05 12:15:45;;;;;;;;;;;27.20;43.00;;;;;;5118707;27;19919;-67
2022/09/05 12:18:18;;;;;;;;;;;27.20;43.20;;;;;;5121201;27;19942;-66
2022/09/05 12:20:51;;;;;;;;;;;27.10;43.40;;;;;;5121155;27;19980;-67
2022/09/05 12:23:25;;;;;;;;;;;27.10;43.30;;;;;;5124060;27;20021;-67
2022/09/05 12:25:56;;;;;;;;;;;27.10;43.10;;;;;;5125795;27;19924;-65
2022/09/05 12:28:27;;;;;;;;;;;27.20;42.40;;;;;;5133594;27;19923;-66
2022/09/05 12:31:08;;;;;;;;;;;27.30;42.30;;;;;;5129902;27;19919;-65
2022/09/05 12:33:36;;;;;;;;;;;27.30;42.60;;;;;;5131913;27;19988;-65
2022/09/05 12:36:08;;;;;;;;;;;27.30;42.80;;;;;;5127319;27;19919;-66
2022/09/05 12:38:38;;;;;;;;;;;27.30;42.60;;;;;;5120509;27;19932;-65
2022/09/05 12:41:07;;;;;;;;;;;27.30;43.20;;;;;;5125720;27;19926;-66
2022/09/05 12:43:39;;;;;;;;;;;27.20;43.20;;;;;;5122778;27;19927;-65
2022/09/05 12:46:12;;;;;;;;;;;27.20;42.80;;;;;;5123707;27;19920;-65
2022/09/05 12:48:40;;;;;;;;;;;27.20;42.50;;;;;;5128934;27;19919;-65
2022/09/05 12:51:09;;;;;;;;;;;27.20;42.20;;;;;;5127431;27;20442;-65
2022/09/05 12:53:43;;;;;;;;;;;27.30;42.80;;;;;;5131031;27;19930;-64
2022/09/05 12:56:16;;;;;;;;;;;27.30;43.30;;;;;;5126149;27;19930;-65
2022/09/05 12:58:47;;;;;;;;;;;27.20;42.90;;;;;;5126282;27;20351;-65
2022/09/05 13:01:27;;;;;;;;;;;27.20;42.90;;;;;;5123634;27;19950;-65
2022/09/05 13:03:57;;;;;;;;;;;27.10;43.60;;;;;;5121861;27;19962;-64
2022/09/05 13:06:26;;;;;;;;;;;27.10;43.00;;;;;;5117832;27;19959;-67
2022/09/05 13:08:56;;;;;;;;;;;27.00;43.60;;;;;;5129454;27;19955;-66
2022/09/05 13:11:24;;;;;;;;;;;26.90;43.60;;;;;;5129951;27;19958;-67
2022/09/05 13:13:54;;;;;;;;;;;26.90;43.40;;;;;;5126327;27;20005;-66
2022/09/05 13:16:22;;;;;;;;;;;27.00;42.80;;;;;;5126981;27;19933;-66
2022/09/05 13:18:50;;;;;;;;;;;27.00;42.40;;;;;;5127938;27;19971;-64
2022/09/05 13:21:19;;;;;;;;;;;27.00;42.50;;;;;;5124093;27;19923;-65
2022/09/05 13:23:49;;;;;;;;;;;27.00;44.10;;;;;;5127346;27;19945;-65
2022/09/05 13:26:18;;;;;;;;;;;27.00;43.60;;;;;;5126807;27;19927;-66
2022/09/05 13:28:50;;;;;;;;;;;27.00;44.20;;;;;;5126641;27;19926;-65
2022/09/05 13:31:39;;;;;;;;;;;27.00;43.90;;;;;;5124089;27;19927;-66
2022/09/05 13:34:12;;;;;;;;;;;26.80;44.50;;;;;;5123780;27;19963;-64
2022/09/05 13:36:45;;;;;;;;;;;26.80;44.70;;;;;;5121481;27;19923;-66
2022/09/05 13:39:13;;;;;;;;;;;26.80;43.70;;;;;;5131624;27;19923;-66
2022/09/05 13:41:43;;;;;;;;;;;26.70;44.90;;;;;;5126634;27;19920;-64
2022/09/05 13:44:13;;;;;;;;;;;26.70;45.20;;;;;;5124641;27;19992;-67
2022/09/05 13:46:46;;;;;;;;;;;26.70;44.30;;;;;;5120218;27;19988;-66
2022/09/05 13:49:20;;;;;;;;;;;26.80;43.40;;;;;;5124734;27;20415;-64
2022/09/05 13:51:49;;;;;;;;;;;27.00;43.00;;;;;;5127921;27;20010;-66
2022/09/05 13:54:32;;;;;;;;;;;27.00;42.20;;;;;;5119118;27;19919;-64
2022/09/05 13:57:16;;;;;;;;;;;27.10;42.40;;;;;;5126758;27;20370;-67
2022/09/05 13:59:59;;;;;;;;;;;27.10;43.30;;;;;;5126933;27;19927;-64
2022/09/05 14:02:43;;;;;;;;;;;27.00;43.10;;;;;;5115294;27;19919;-66
2022/09/05 14:05:28;;;;;;;;;;;27.10;42.60;;;;;;5126524;27;19972;-64
2022/09/05 14:08:15;;;;;;;;;;;27.00;43.00;;;;;;5123143;27;19926;-64
2022/09/05 14:11:02;;;;;;;;;;;27.00;42.30;;;;;;5119257;27;19923;-65
2022/09/05 14:13:32;;;;;;;;;;;26.90;41.40;;;;;;5126955;27;19923;-65
2022/09/05 14:16:01;;;;;;;;;;;26.90;41.90;;;;;;5124343;27;20018;-64
2022/09/05 14:18:31;;;;;;;;;;;26.90;41.60;;;;;;5125714;27;19972;-66
2022/09/05 14:21:15;;;;;;;;;;;27.00;42.00;;;;;;5129784;27;19919;-64
2022/09/05 14:23:47;;;;;;;;;;;26.90;42.80;;;;;;5131277;27;19966;-65
2022/09/05 14:26:19;;;;;;;;;;;26.80;43.40;;;;;;5125321;27;19999;-63
2022/09/05 14:28:52;;;;;;;;;;;26.80;42.60;;;;;;5131879;27;19920;-64
2022/09/05 14:31:22;;;;;;;;;;;26.90;42.30;;;;;;5129608;27;19947;-64
2022/09/05 14:34:27;;;;;;;;;;;26.90;41.90;;;;;;5130564;27;19919;-67
2022/09/05 14:36:59;;;;;;;;;;;26.90;42.70;;;;;;5058830;28;19920;-66
2022/09/05 14:39:41;;;;;;;;;;;26.90;43.00;;;;;;5112529;27;19927;-66
2022/09/05 14:42:14;;;;;;;;;;;26.90;42.70;;;;;;5116953;27;20335;-65
2022/09/05 14:44:50;;;;;;;;;;;26.90;43.00;;;;;;5125642;27;19972;-65
2022/09/05 14:47:38;;;;;;;;;;;26.80;42.30;;;;;;5122649;27;20031;-66
2022/09/05 14:50:13;;;;;;;;;;;26.80;42.20;;;;;;5118725;27;19930;-65
2022/09/05 14:52:57;;;;;;;;;;;26.80;42.60;;;;;;5127539;27;19924;-66
2022/09/05 14:55:25;;;;;;;;;;;26.90;42.50;;;;;;5129122;27;19923;-64
2022/09/05 14:57:52;;;;;;;;;;;26.90;44.10;;;;;;5136031;27;19923;-65
2022/09/05 15:00:21;;;;;;;;;;;26.80;44.10;;;;;;5127700;27;19919;-65
2022/09/05 15:02:49;;;;;;;;;;;26.80;44.40;;;;;;5123715;27;19920;-65
2022/09/05 15:05:18;;;;;;;;;;;26.70;44.80;;;;;;5122242;27;19920;-66
2022/09/05 15:07:48;;;;;;;;;;;26.70;45.20;;;;;;5129374;27;19923;-65
2022/09/05 15:10:26;;;;;;;;;;;26.60;44.80;;;;;;5131307;27;19919;-66
2022/09/05 15:12:54;;;;;;;;;;;26.60;45.00;;;;;;5124411;27;19923;-65
2022/09/05 15:15:24;;;;;;;;;;;26.60;45.00;;;;;;5123398;27;20422;-66
2022/09/05 15:17:55;;;;;;;;;;;26.60;45.70;;;;;;5128314;27;19963;-65
2022/09/05 15:20:29;;;;;;;;;;;26.70;44.00;;;;;;5128891;27;19963;-66
2022/09/05 15:22:58;;;;;;;;;;;26.60;44.50;;;;;;5128790;27;19926;-65
2022/09/05 15:25:26;;;;;;;;;;;26.60;44.80;;;;;;5134130;27;20035;-66
2022/09/05 15:27:54;;;;;;;;;;;26.50;44.90;;;;;;5128770;27;19919;-65
2022/09/05 15:30:26;;;;;;;;;;;26.50;44.80;;;;;;5127608;27;19943;-65
2022/09/05 15:33:07;;;;;;;;;;;26.50;45.10;;;;;;5129465;27;20010;-65
2022/09/05 15:35:35;;;;;;;;;;;26.50;44.60;;;;;;5131792;27;19965;-66
2022/09/05 15:38:25;;;;;;;;;;;26.60;44.50;;;;;;5128961;27;20455;-68
2022/09/05 15:41:09;;;;;;;;;;;26.50;44.20;;;;;;5128194;27;19924;-65
2022/09/05 15:43:38;;;;;;;;;;;26.50;44.90;;;;;;5125371;27;20402;-65
2022/09/05 15:46:06;;;;;;;;;;;26.40;44.90;;;;;;5129172;27;19919;-65
2022/09/05 15:48:34;;;;;;;;;;;26.40;45.60;;;;;;5127493;27;19920;-66
2022/09/05 15:51:07;;;;;;;;;;;26.40;45.00;;;;;;5124395;27;19923;-66
2022/09/05 15:53:37;;;;;;;;;;;26.40;44.50;;;;;;5127263;27;20408;-66
2022/09/05 15:56:15;;;;;;;;;;;26.40;44.80;;;;;;5129993;27;20285;-67
2022/09/05 15:58:45;;;;;;;;;;;26.30;45.10;;;;;;5123664;27;20449;-66
2022/09/05 16:01:14;;;;;;;;;;;26.30;44.50;;;;;;5123885;27;19919;-66
2022/09/05 16:03:42;;;;;;;;;;;26.30;44.10;;;;;;5130574;27;19919;-66
2022/09/05 16:06:10;;;;;;;;;;;26.30;45.00;;;;;;5130889;27;19962;-67
2022/09/05 16:08:42;;;;;;;;;;;26.30;43.90;;;;;;5127620;27;20035;-65
2022/09/05 16:11:31;;;;;;;;;;;26.20;44.40;;;;;;5128642;27;19927;-67
2022/09/05 16:14:12;;;;;;;;;;;26.20;45.10;;;;;;5124468;27;19919;-65
2022/09/05 16:16:41;;;;;;;;;;;26.10;45.50;;;;;;5126697;27;20398;-66
2022/09/05 16:19:10;;;;;;;;;;;26.10;45.40;;;;;;5126055;27;19919;-67
2022/09/05 16:21:37;;;;;;;;;;;26.10;45.70;;;;;;5129718;27;19947;-68
2022/09/05 16:24:09;;;;;;;;;;;26.10;45.60;;;;;;5121731;27;20381;-66
2022/09/05 16:26:40;;;;;;;;;;;26.00;45.60;;;;;;5127894;27;19926;-66
2022/09/05 16:29:10;;;;;;;;;;;26.00;45.80;;;;;;5128995;27;20030;-64
2022/09/05 16:31:39;;;;;;;;;;;26.00;45.60;;;;;;5125895;27;19926;-64
2022/09/05 16:34:11;;;;;;;;;;;26.00;45.50;;;;;;5125849;27;19920;-63